sensor_id;sensor_type;location;lat;lon;timestamp;P1;durP1;ratioP1;P2;durP2;ratioP2
4565;SDS011;2295;51.050;14.608;2022-08-19T00:01:44;16.67;;;13.50;;
4565;SDS011;2295;51.050;14.608;2022-08-19T00:04:19;18.63;;;12.77;;
4565;SDS011;2295;51.050;14.608;2022-08-19T00:06:49;24.33;;;14.40;;
4565;SDS011;2295;51.050;14.608;2022-08-19T00:09:18;18.63;;;14.57;;
4565;SDS011;2295;51.050;14.608;2022-08-19T00:11:48;20.70;;;13.20;;
4565;SDS011;2295;51.050;14.608;2022-08-19T00:14:17;15.90;;;14.23;;
4565;SDS011;2295;51.050;14.608;2022-08-19T00:16:48;18.60;;;13.13;;
4565;SDS011;2295;51.050;14.608;2022-08-19T00:19:17;20.83;;;14.80;;
4565;SDS011;2295;51.050;14.608;2022-08-19T00:21:46;19.93;;;13.60;;
4565;SDS011;2295;51.050;14.608;2022-08-19T00:24:14;18.47;;;13.77;;
4565;SDS011;2295;51.050;14.608;2022-08-19T00:26:43;14.70;;;13.20;;
4565;SDS011;2295;51.050;14.608;2022-08-19T00:29:13;25.00;;;13.93;;
4565;SDS011;2295;51.050;14.608;2022-08-19T00:31:43;14.70;;;13.20;;
4565;SDS011;2295;51.050;14.608;2022-08-19T00:34:14;19.07;;;13.63;;
4565;SDS011;2295;51.050;14.608;2022-08-19T00:36:42;17.17;;;13.50;;
4565;SDS011;2295;51.050;14.608;2022-08-19T00:39:11;15.67;;;13.30;;
4565;SDS011;2295;51.050;14.608;2022-08-19T00:41:40;20.20;;;14.70;;
4565;SDS011;2295;51.050;14.608;2022-08-19T00:44:09;24.27;;;16.60;;
4565;SDS011;2295;51.050;14.608;2022-08-19T00:46:39;22.03;;;14.73;;
4565;SDS011;2295;51.050;14.608;2022-08-19T00:49:23;22.03;;;15.90;;
4565;SDS011;2295;51.050;14.608;2022-08-19T00:51:55;18.93;;;15.57;;
4565;SDS011;2295;51.050;14.608;2022-08-19T00:54:28;19.33;;;15.73;;
4565;SDS011;2295;51.050;14.608;2022-08-19T00:56:57;26.57;;;16.50;;
4565;SDS011;2295;51.050;14.608;2022-08-19T00:59:26;18.10;;;15.63;;
4565;SDS011;2295;51.050;14.608;2022-08-19T01:02:16;21.50;;;15.70;;
4565;SDS011;2295;51.050;14.608;2022-08-19T01:04:47;21.23;;;16.10;;
4565;SDS011;2295;51.050;14.608;2022-08-19T01:07:15;20.43;;;15.27;;
4565;SDS011;2295;51.050;14.608;2022-08-19T01:09:45;19.87;;;15.93;;
4565;SDS011;2295;51.050;14.608;2022-08-19T01:12:13;20.70;;;18.47;;
4565;SDS011;2295;51.050;14.608;2022-08-19T01:14:42;22.87;;;15.77;;
4565;SDS011;2295;51.050;14.608;2022-08-19T01:17:11;26.70;;;17.60;;
4565;SDS011;2295;51.050;14.608;2022-08-19T01:19:40;21.40;;;17.03;;
4565;SDS011;2295;51.050;14.608;2022-08-19T01:22:12;25.50;;;17.00;;
4565;SDS011;2295;51.050;14.608;2022-08-19T01:24:57;33.87;;;17.80;;
4565;SDS011;2295;51.050;14.608;2022-08-19T01:27:25;21.27;;;17.03;;
4565;SDS011;2295;51.050;14.608;2022-08-19T01:30:09;26.53;;;18.07;;
4565;SDS011;2295;51.050;14.608;2022-08-19T01:32:38;30.80;;;18.77;;
4565;SDS011;2295;51.050;14.608;2022-08-19T01:35:07;24.40;;;17.57;;
4565;SDS011;2295;51.050;14.608;2022-08-19T01:37:42;21.90;;;18.10;;
4565;SDS011;2295;51.050;14.608;2022-08-19T01:40:14;29.00;;;19.50;;
4565;SDS011;2295;51.050;14.608;2022-08-19T01:42:43;27.03;;;20.07;;
4565;SDS011;2295;51.050;14.608;2022-08-19T01:45:11;27.03;;;20.47;;
4565;SDS011;2295;51.050;14.608;2022-08-19T01:47:39;26.13;;;20.47;;
4565;SDS011;2295;51.050;14.608;2022-08-19T01:50:17;28.27;;;20.00;;
4565;SDS011;2295;51.050;14.608;2022-08-19T01:52:47;27.40;;;17.90;;
4565;SDS011;2295;51.050;14.608;2022-08-19T01:55:30;29.73;;;20.30;;
4565;SDS011;2295;51.050;14.608;2022-08-19T01:57:59;29.20;;;22.33;;
4565;SDS011;2295;51.050;14.608;2022-08-19T02:00:32;27.60;;;20.67;;
4565;SDS011;2295;51.050;14.608;2022-08-19T02:03:00;31.23;;;22.83;;
4565;SDS011;2295;51.050;14.608;2022-08-19T02:05:29;27.60;;;20.90;;
4565;SDS011;2295;51.050;14.608;2022-08-19T02:07:58;33.27;;;23.73;;
4565;SDS011;2295;51.050;14.608;2022-08-19T02:10:26;34.87;;;21.97;;
4565;SDS011;2295;51.050;14.608;2022-08-19T02:12:55;29.87;;;21.50;;
4565;SDS011;2295;51.050;14.608;2022-08-19T02:15:24;28.90;;;23.37;;
4565;SDS011;2295;51.050;14.608;2022-08-19T02:17:52;26.90;;;21.20;;
4565;SDS011;2295;51.050;14.608;2022-08-19T02:20:21;35.47;;;23.50;;
4565;SDS011;2295;51.050;14.608;2022-08-19T02:22:49;32.00;;;23.40;;
4565;SDS011;2295;51.050;14.608;2022-08-19T02:25:19;26.03;;;20.20;;
4565;SDS011;2295;51.050;14.608;2022-08-19T02:27:47;24.87;;;20.30;;
4565;SDS011;2295;51.050;14.608;2022-08-19T02:30:17;30.30;;;23.37;;
4565;SDS011;2295;51.050;14.608;2022-08-19T02:32:46;31.60;;;22.47;;
4565;SDS011;2295;51.050;14.608;2022-08-19T02:35:14;31.77;;;24.67;;
4565;SDS011;2295;51.050;14.608;2022-08-19T02:37:42;29.33;;;23.33;;
4565;SDS011;2295;51.050;14.608;2022-08-19T02:40:28;27.87;;;22.00;;
4565;SDS011;2295;51.050;14.608;2022-08-19T02:43:00;32.43;;;21.90;;
4565;SDS011;2295;51.050;14.608;2022-08-19T02:45:32;33.87;;;24.70;;
4565;SDS011;2295;51.050;14.608;2022-08-19T02:48:06;36.13;;;25.60;;
4565;SDS011;2295;51.050;14.608;2022-08-19T02:50:47;34.43;;;22.37;;
4565;SDS011;2295;51.050;14.608;2022-08-19T02:53:21;30.50;;;23.50;;
4565;SDS011;2295;51.050;14.608;2022-08-19T02:55:50;32.73;;;22.70;;
4565;SDS011;2295;51.050;14.608;2022-08-19T02:58:19;25.60;;;19.93;;
4565;SDS011;2295;51.050;14.608;2022-08-19T03:00:52;30.40;;;23.17;;
4565;SDS011;2295;51.050;14.608;2022-08-19T03:03:22;28.53;;;22.70;;
4565;SDS011;2295;51.050;14.608;2022-08-19T03:05:50;29.63;;;22.43;;
4565;SDS011;2295;51.050;14.608;2022-08-19T03:08:22;29.97;;;23.33;;
4565;SDS011;2295;51.050;14.608;2022-08-19T03:10:51;30.47;;;23.47;;
4565;SDS011;2295;51.050;14.608;2022-08-19T03:13:20;35.03;;;24.60;;
4565;SDS011;2295;51.050;14.608;2022-08-19T03:15:51;34.03;;;24.37;;
4565;SDS011;2295;51.050;14.608;2022-08-19T03:18:20;31.93;;;24.67;;
4565;SDS011;2295;51.050;14.608;2022-08-19T03:20:49;28.93;;;23.37;;
4565;SDS011;2295;51.050;14.608;2022-08-19T03:23:20;34.40;;;24.00;;
4565;SDS011;2295;51.050;14.608;2022-08-19T03:25:50;33.40;;;23.37;;
4565;SDS011;2295;51.050;14.608;2022-08-19T03:28:39;33.70;;;25.77;;
4565;SDS011;2295;51.050;14.608;2022-08-19T03:31:18;31.60;;;24.00;;
4565;SDS011;2295;51.050;14.608;2022-08-19T03:34:09;38.67;;;23.97;;
4565;SDS011;2295;51.050;14.608;2022-08-19T03:36:38;30.47;;;24.40;;
4565;SDS011;2295;51.050;14.608;2022-08-19T03:39:07;31.53;;;25.23;;
4565;SDS011;2295;51.050;14.608;2022-08-19T03:41:37;31.60;;;24.47;;
4565;SDS011;2295;51.050;14.608;2022-08-19T03:44:11;30.60;;;24.67;;
4565;SDS011;2295;51.050;14.608;2022-08-19T03:46:45;34.87;;;23.57;;
4565;SDS011;2295;51.050;14.608;2022-08-19T03:49:14;39.13;;;26.50;;
4565;SDS011;2295;51.050;14.608;2022-08-19T03:51:44;30.07;;;24.47;;
4565;SDS011;2295;51.050;14.608;2022-08-19T03:54:13;33.17;;;23.67;;
4565;SDS011;2295;51.050;14.608;2022-08-19T03:56:43;30.37;;;24.60;;
4565;SDS011;2295;51.050;14.608;2022-08-19T03:59:15;34.50;;;24.77;;
4565;SDS011;2295;51.050;14.608;2022-08-19T04:01:46;29.73;;;23.60;;
4565;SDS011;2295;51.050;14.608;2022-08-19T04:04:14;31.03;;;25.50;;
4565;SDS011;2295;51.050;14.608;2022-08-19T04:06:45;31.87;;;25.10;;
4565;SDS011;2295;51.050;14.608;2022-08-19T04:09:14;32.97;;;25.67;;
4565;SDS011;2295;51.050;14.608;2022-08-19T04:11:44;36.47;;;27.30;;
4565;SDS011;2295;51.050;14.608;2022-08-19T04:14:15;35.17;;;25.80;;
4565;SDS011;2295;51.050;14.608;2022-08-19T04:16:46;31.50;;;24.80;;
4565;SDS011;2295;51.050;14.608;2022-08-19T04:19:16;32.13;;;24.60;;
4565;SDS011;2295;51.050;14.608;2022-08-19T04:21:46;29.47;;;23.80;;
4565;SDS011;2295;51.050;14.608;2022-08-19T04:24:17;28.37;;;22.50;;
4565;SDS011;2295;51.050;14.608;2022-08-19T04:26:46;30.07;;;23.70;;
4565;SDS011;2295;51.050;14.608;2022-08-19T04:29:15;33.23;;;25.57;;
4565;SDS011;2295;51.050;14.608;2022-08-19T04:31:49;37.73;;;25.37;;
4565;SDS011;2295;51.050;14.608;2022-08-19T04:34:20;39.60;;;27.70;;
4565;SDS011;2295;51.050;14.608;2022-08-19T04:36:50;31.43;;;24.13;;
4565;SDS011;2295;51.050;14.608;2022-08-19T04:39:25;36.23;;;27.03;;
4565;SDS011;2295;51.050;14.608;2022-08-19T04:42:10;38.67;;;27.80;;
4565;SDS011;2295;51.050;14.608;2022-08-19T04:44:56;36.87;;;27.37;;
4565;SDS011;2295;51.050;14.608;2022-08-19T04:47:26;34.30;;;26.20;;
4565;SDS011;2295;51.050;14.608;2022-08-19T04:50:15;38.03;;;27.73;;
4565;SDS011;2295;51.050;14.608;2022-08-19T04:52:43;41.83;;;26.10;;
4565;SDS011;2295;51.050;14.608;2022-08-19T04:55:12;39.93;;;26.47;;
4565;SDS011;2295;51.050;14.608;2022-08-19T04:57:40;35.73;;;25.00;;
4565;SDS011;2295;51.050;14.608;2022-08-19T05:00:09;37.23;;;26.73;;
4565;SDS011;2295;51.050;14.608;2022-08-19T05:02:39;31.50;;;23.93;;
4565;SDS011;2295;51.050;14.608;2022-08-19T05:05:07;34.77;;;26.27;;
4565;SDS011;2295;51.050;14.608;2022-08-19T05:07:37;37.03;;;28.47;;
4565;SDS011;2295;51.050;14.608;2022-08-19T05:10:07;39.67;;;25.60;;
4565;SDS011;2295;51.050;14.608;2022-08-19T05:12:36;37.33;;;26.77;;
4565;SDS011;2295;51.050;14.608;2022-08-19T05:15:05;46.63;;;28.17;;
4565;SDS011;2295;51.050;14.608;2022-08-19T05:17:34;34.67;;;25.33;;
4565;SDS011;2295;51.050;14.608;2022-08-19T05:20:06;36.67;;;27.33;;
4565;SDS011;2295;51.050;14.608;2022-08-19T05:22:53;32.33;;;24.53;;
4565;SDS011;2295;51.050;14.608;2022-08-19T05:25:22;40.33;;;25.87;;
4565;SDS011;2295;51.050;14.608;2022-08-19T05:27:51;32.33;;;24.70;;
4565;SDS011;2295;51.050;14.608;2022-08-19T05:30:19;36.53;;;25.67;;
4565;SDS011;2295;51.050;14.608;2022-08-19T05:33:07;38.63;;;26.00;;
4565;SDS011;2295;51.050;14.608;2022-08-19T05:35:39;33.20;;;24.33;;
4565;SDS011;2295;51.050;14.608;2022-08-19T05:38:07;34.50;;;25.90;;
4565;SDS011;2295;51.050;14.608;2022-08-19T05:40:37;37.53;;;27.87;;
4565;SDS011;2295;51.050;14.608;2022-08-19T05:43:06;42.20;;;28.07;;
4565;SDS011;2295;51.050;14.608;2022-08-19T05:45:38;34.13;;;24.60;;
4565;SDS011;2295;51.050;14.608;2022-08-19T05:48:08;38.93;;;26.17;;
4565;SDS011;2295;51.050;14.608;2022-08-19T05:50:39;41.90;;;28.40;;
4565;SDS011;2295;51.050;14.608;2022-08-19T05:53:08;38.60;;;25.27;;
4565;SDS011;2295;51.050;14.608;2022-08-19T05:55:37;40.33;;;28.10;;
4565;SDS011;2295;51.050;14.608;2022-08-19T05:58:06;38.13;;;27.50;;
4565;SDS011;2295;51.050;14.608;2022-08-19T06:00:34;42.60;;;27.27;;
4565;SDS011;2295;51.050;14.608;2022-08-19T06:03:03;39.53;;;28.40;;
4565;SDS011;2295;51.050;14.608;2022-08-19T06:05:40;37.87;;;27.27;;
4565;SDS011;2295;51.050;14.608;2022-08-19T06:08:17;48.10;;;29.17;;
4565;SDS011;2295;51.050;14.608;2022-08-19T06:11:11;43.40;;;28.63;;
4565;SDS011;2295;51.050;14.608;2022-08-19T06:13:44;53.43;;;29.83;;
4565;SDS011;2295;51.050;14.608;2022-08-19T06:16:25;43.00;;;28.50;;
4565;SDS011;2295;51.050;14.608;2022-08-19T06:18:54;39.33;;;26.90;;
4565;SDS011;2295;51.050;14.608;2022-08-19T06:21:26;47.40;;;32.23;;
4565;SDS011;2295;51.050;14.608;2022-08-19T06:23:56;41.80;;;27.40;;
4565;SDS011;2295;51.050;14.608;2022-08-19T06:26:25;44.13;;;29.23;;
4565;SDS011;2295;51.050;14.608;2022-08-19T06:28:54;40.33;;;29.00;;
4565;SDS011;2295;51.050;14.608;2022-08-19T06:31:24;47.03;;;30.87;;
4565;SDS011;2295;51.050;14.608;2022-08-19T06:33:54;45.60;;;29.40;;
4565;SDS011;2295;51.050;14.608;2022-08-19T06:36:23;41.47;;;28.03;;
4565;SDS011;2295;51.050;14.608;2022-08-19T06:38:58;42.57;;;28.40;;
4565;SDS011;2295;51.050;14.608;2022-08-19T06:41:28;37.53;;;26.27;;
4565;SDS011;2295;51.050;14.608;2022-08-19T06:43:57;43.70;;;26.93;;
4565;SDS011;2295;51.050;14.608;2022-08-19T06:46:25;35.60;;;25.20;;
4565;SDS011;2295;51.050;14.608;2022-08-19T06:48:59;31.97;;;23.30;;
4565;SDS011;2295;51.050;14.608;2022-08-19T06:51:29;29.07;;;22.10;;
4565;SDS011;2295;51.050;14.608;2022-08-19T06:53:58;28.30;;;20.97;;
4565;SDS011;2295;51.050;14.608;2022-08-19T06:56:29;28.13;;;18.90;;
4565;SDS011;2295;51.050;14.608;2022-08-19T06:59:01;26.80;;;17.77;;
4565;SDS011;2295;51.050;14.608;2022-08-19T07:01:33;18.93;;;16.80;;
4565;SDS011;2295;51.050;14.608;2022-08-19T07:04:04;34.67;;;15.53;;
4565;SDS011;2295;51.050;14.608;2022-08-19T07:06:38;20.20;;;14.93;;
4565;SDS011;2295;51.050;14.608;2022-08-19T07:09:10;20.43;;;13.80;;
4565;SDS011;2295;51.050;14.608;2022-08-19T07:11:44;17.53;;;13.20;;
4565;SDS011;2295;51.050;14.608;2022-08-19T07:14:13;15.00;;;12.00;;
4565;SDS011;2295;51.050;14.608;2022-08-19T07:16:45;15.63;;;12.77;;
4565;SDS011;2295;51.050;14.608;2022-08-19T07:19:15;14.50;;;10.60;;
4565;SDS011;2295;51.050;14.608;2022-08-19T07:21:46;12.47;;;11.17;;
4565;SDS011;2295;51.050;14.608;2022-08-19T07:24:16;15.33;;;11.83;;
4565;SDS011;2295;51.050;14.608;2022-08-19T07:26:45;12.07;;;10.40;;
4565;SDS011;2295;51.050;14.608;2022-08-19T07:29:17;16.93;;;12.33;;
4565;SDS011;2295;51.050;14.608;2022-08-19T07:31:49;14.80;;;10.93;;
4565;SDS011;2295;51.050;14.608;2022-08-19T07:34:19;13.80;;;10.33;;
4565;SDS011;2295;51.050;14.608;2022-08-19T07:36:49;20.43;;;11.33;;
4565;SDS011;2295;51.050;14.608;2022-08-19T07:39:23;12.03;;;10.73;;
4565;SDS011;2295;51.050;14.608;2022-08-19T07:41:53;10.43;;;9.20;;
4565;SDS011;2295;51.050;14.608;2022-08-19T07:44:22;11.47;;;8.70;;
4565;SDS011;2295;51.050;14.608;2022-08-19T07:46:52;10.13;;;8.23;;
4565;SDS011;2295;51.050;14.608;2022-08-19T07:49:23;7.00;;;6.30;;
4565;SDS011;2295;51.050;14.608;2022-08-19T07:51:53;8.83;;;6.60;;
4565;SDS011;2295;51.050;14.608;2022-08-19T07:54:24;7.63;;;6.93;;
4565;SDS011;2295;51.050;14.608;2022-08-19T07:56:54;7.00;;;6.40;;
4565;SDS011;2295;51.050;14.608;2022-08-19T07:59:23;6.57;;;5.97;;
4565;SDS011;2295;51.050;14.608;2022-08-19T08:01:51;6.30;;;5.70;;
4565;SDS011;2295;51.050;14.608;2022-08-19T08:04:20;5.40;;;4.90;;
4565;SDS011;2295;51.050;14.608;2022-08-19T08:07:07;5.60;;;5.20;;
4565;SDS011;2295;51.050;14.608;2022-08-19T08:09:57;4.80;;;4.50;;
4565;SDS011;2295;51.050;14.608;2022-08-19T08:12:29;4.77;;;4.37;;
4565;SDS011;2295;51.050;14.608;2022-08-19T08:15:02;4.90;;;4.50;;
4565;SDS011;2295;51.050;14.608;2022-08-19T08:17:38;4.97;;;4.57;;
4565;SDS011;2295;51.050;14.608;2022-08-19T08:20:16;4.40;;;4.10;;
4565;SDS011;2295;51.050;14.608;2022-08-19T08:22:47;5.00;;;4.60;;
4565;SDS011;2295;51.050;14.608;2022-08-19T08:25:33;4.90;;;4.50;;
4565;SDS011;2295;51.050;14.608;2022-08-19T08:28:03;3.80;;;3.60;;
4565;SDS011;2295;51.050;14.608;2022-08-19T08:30:36;4.10;;;3.80;;
4565;SDS011;2295;51.050;14.608;2022-08-19T08:33:10;3.97;;;3.70;;
4565;SDS011;2295;51.050;14.608;2022-08-19T08:35:39;7.10;;;3.77;;
4565;SDS011;2295;51.050;14.608;2022-08-19T08:38:10;4.43;;;3.60;;
4565;SDS011;2295;51.050;14.608;2022-08-19T08:40:39;4.17;;;3.83;;
4565;SDS011;2295;51.050;14.608;2022-08-19T08:43:16;4.73;;;4.40;;
4565;SDS011;2295;51.050;14.608;2022-08-19T08:45:51;5.33;;;4.47;;
4565;SDS011;2295;51.050;14.608;2022-08-19T08:48:24;5.00;;;4.60;;
4565;SDS011;2295;51.050;14.608;2022-08-19T08:50:59;5.23;;;4.80;;
4565;SDS011;2295;51.050;14.608;2022-08-19T08:53:35;5.30;;;4.90;;
4565;SDS011;2295;51.050;14.608;2022-08-19T08:56:08;6.70;;;5.17;;
4565;SDS011;2295;51.050;14.608;2022-08-19T08:58:48;11.10;;;5.90;;
4565;SDS011;2295;51.050;14.608;2022-08-19T09:01:20;6.60;;;5.80;;
4565;SDS011;2295;51.050;14.608;2022-08-19T09:03:49;6.37;;;5.77;;
4565;SDS011;2295;51.050;14.608;2022-08-19T09:06:20;8.13;;;6.77;;
4565;SDS011;2295;51.050;14.608;2022-08-19T09:08:59;8.70;;;6.07;;
4565;SDS011;2295;51.050;14.608;2022-08-19T09:11:41;7.60;;;6.23;;
4565;SDS011;2295;51.050;14.608;2022-08-19T09:14:20;9.37;;;6.57;;
4565;SDS011;2295;51.050;14.608;2022-08-19T09:17:18;7.33;;;6.73;;
4565;SDS011;2295;51.050;14.608;2022-08-19T09:19:56;8.07;;;7.33;;
4565;SDS011;2295;51.050;14.608;2022-08-19T09:22:27;7.60;;;6.80;;
4565;SDS011;2295;51.050;14.608;2022-08-19T09:24:56;9.30;;;7.10;;
4565;SDS011;2295;51.050;14.608;2022-08-19T09:27:25;8.73;;;7.93;;
4565;SDS011;2295;51.050;14.608;2022-08-19T09:30:15;7.47;;;6.73;;
4565;SDS011;2295;51.050;14.608;2022-08-19T09:32:45;7.73;;;6.93;;
4565;SDS011;2295;51.050;14.608;2022-08-19T09:35:18;7.30;;;6.60;;
4565;SDS011;2295;51.050;14.608;2022-08-19T09:37:49;8.90;;;6.77;;
4565;SDS011;2295;51.050;14.608;2022-08-19T09:40:25;8.50;;;7.23;;
4565;SDS011;2295;51.050;14.608;2022-08-19T09:42:56;6.83;;;6.27;;
4565;SDS011;2295;51.050;14.608;2022-08-19T09:45:38;6.57;;;5.97;;
4565;SDS011;2295;51.050;14.608;2022-08-19T09:48:07;6.53;;;6.03;;
4565;SDS011;2295;51.050;14.608;2022-08-19T09:50:44;6.43;;;5.83;;
4565;SDS011;2295;51.050;14.608;2022-08-19T09:53:17;5.43;;;5.03;;
4565;SDS011;2295;51.050;14.608;2022-08-19T09:55:52;7.87;;;4.70;;
4565;SDS011;2295;51.050;14.608;2022-08-19T09:58:22;4.33;;;4.03;;
4565;SDS011;2295;51.050;14.608;2022-08-19T10:00:54;5.50;;;5.10;;
4565;SDS011;2295;51.050;14.608;2022-08-19T10:03:22;5.13;;;4.63;;
4565;SDS011;2295;51.050;14.608;2022-08-19T10:05:56;5.60;;;5.20;;
4565;SDS011;2295;51.050;14.608;2022-08-19T10:08:29;5.93;;;5.33;;
4565;SDS011;2295;51.050;14.608;2022-08-19T10:11:01;5.30;;;4.90;;
4565;SDS011;2295;51.050;14.608;2022-08-19T10:13:51;5.27;;;4.87;;
4565;SDS011;2295;51.050;14.608;2022-08-19T10:16:20;5.50;;;5.10;;
4565;SDS011;2295;51.050;14.608;2022-08-19T10:18:55;5.70;;;5.03;;
4565;SDS011;2295;51.050;14.608;2022-08-19T10:21:25;5.27;;;4.93;;
4565;SDS011;2295;51.050;14.608;2022-08-19T10:23:58;5.67;;;5.27;;
4565;SDS011;2295;51.050;14.608;2022-08-19T10:26:31;6.40;;;5.90;;
4565;SDS011;2295;51.050;14.608;2022-08-19T10:29:01;8.60;;;6.73;;
4565;SDS011;2295;51.050;14.608;2022-08-19T10:31:34;7.23;;;6.53;;
4565;SDS011;2295;51.050;14.608;2022-08-19T10:34:23;9.50;;;6.67;;
4565;SDS011;2295;51.050;14.608;2022-08-19T10:36:54;6.23;;;5.63;;
4565;SDS011;2295;51.050;14.608;2022-08-19T10:39:26;7.90;;;6.80;;
4565;SDS011;2295;51.050;14.608;2022-08-19T10:41:58;7.03;;;6.03;;
4565;SDS011;2295;51.050;14.608;2022-08-19T10:44:26;6.83;;;6.00;;
4565;SDS011;2295;51.050;14.608;2022-08-19T10:46:58;6.30;;;5.80;;
4565;SDS011;2295;51.050;14.608;2022-08-19T10:49:26;6.33;;;5.30;;
4565;SDS011;2295;51.050;14.608;2022-08-19T10:51:55;7.57;;;6.90;;
4565;SDS011;2295;51.050;14.608;2022-08-19T10:54:47;7.27;;;6.63;;
4565;SDS011;2295;51.050;14.608;2022-08-19T10:57:35;6.50;;;5.60;;
4565;SDS011;2295;51.050;14.608;2022-08-19T11:00:23;6.67;;;6.00;;
4565;SDS011;2295;51.050;14.608;2022-08-19T11:02:52;6.70;;;6.03;;
4565;SDS011;2295;51.050;14.608;2022-08-19T11:05:20;6.70;;;6.17;;
4565;SDS011;2295;51.050;14.608;2022-08-19T11:07:49;8.70;;;6.30;;
4565;SDS011;2295;51.050;14.608;2022-08-19T11:10:18;8.93;;;5.43;;
4565;SDS011;2295;51.050;14.608;2022-08-19T11:12:49;6.87;;;6.27;;
4565;SDS011;2295;51.050;14.608;2022-08-19T11:15:21;6.47;;;5.80;;
4565;SDS011;2295;51.050;14.608;2022-08-19T11:17:50;7.10;;;6.50;;
4565;SDS011;2295;51.050;14.608;2022-08-19T11:20:20;7.77;;;7.00;;
4565;SDS011;2295;51.050;14.608;2022-08-19T11:22:50;7.60;;;6.80;;
4565;SDS011;2295;51.050;14.608;2022-08-19T11:25:19;7.40;;;6.80;;
4565;SDS011;2295;51.050;14.608;2022-08-19T11:27:49;7.43;;;6.70;;
4565;SDS011;2295;51.050;14.608;2022-08-19T11:30:18;7.50;;;6.83;;
4565;SDS011;2295;51.050;14.608;2022-08-19T11:32:47;8.20;;;7.40;;
4565;SDS011;2295;51.050;14.608;2022-08-19T11:35:15;9.70;;;7.63;;
4565;SDS011;2295;51.050;14.608;2022-08-19T11:37:46;7.03;;;6.33;;
4565;SDS011;2295;51.050;14.608;2022-08-19T11:40:14;7.73;;;7.03;;
4565;SDS011;2295;51.050;14.608;2022-08-19T11:42:43;11.20;;;7.93;;
4565;SDS011;2295;51.050;14.608;2022-08-19T11:45:25;10.93;;;9.03;;
4565;SDS011;2295;51.050;14.608;2022-08-19T11:47:55;10.43;;;8.93;;
4565;SDS011;2295;51.050;14.608;2022-08-19T11:50:23;12.53;;;9.80;;
4565;SDS011;2295;51.050;14.608;2022-08-19T11:52:53;13.10;;;11.10;;
4565;SDS011;2295;51.050;14.608;2022-08-19T11:55:22;12.00;;;10.70;;
4565;SDS011;2295;51.050;14.608;2022-08-19T11:57:50;15.17;;;10.43;;
4565;SDS011;2295;51.050;14.608;2022-08-19T12:00:19;10.97;;;9.87;;
4565;SDS011;2295;51.050;14.608;2022-08-19T12:02:49;12.17;;;10.87;;
4565;SDS011;2295;51.050;14.608;2022-08-19T12:05:17;13.10;;;10.50;;
4565;SDS011;2295;51.050;14.608;2022-08-19T12:07:45;10.67;;;9.27;;
4565;SDS011;2295;51.050;14.608;2022-08-19T12:10:13;11.27;;;10.07;;
4565;SDS011;2295;51.050;14.608;2022-08-19T12:12:45;12.50;;;10.27;;
4565;SDS011;2295;51.050;14.608;2022-08-19T12:15:24;12.27;;;10.90;;
4565;SDS011;2295;51.050;14.608;2022-08-19T12:18:04;11.40;;;10.20;;
4565;SDS011;2295;51.050;14.608;2022-08-19T12:20:33;13.17;;;10.03;;
4565;SDS011;2295;51.050;14.608;2022-08-19T12:23:03;15.50;;;10.80;;
4565;SDS011;2295;51.050;14.608;2022-08-19T12:25:31;12.03;;;10.70;;
4565;SDS011;2295;51.050;14.608;2022-08-19T12:28:00;13.40;;;10.40;;
4565;SDS011;2295;51.050;14.608;2022-08-19T12:30:30;14.80;;;11.10;;
4565;SDS011;2295;51.050;14.608;2022-08-19T12:32:58;13.10;;;10.77;;
4565;SDS011;2295;51.050;14.608;2022-08-19T12:35:28;12.50;;;11.20;;
4565;SDS011;2295;51.050;14.608;2022-08-19T12:37:56;13.27;;;11.53;;
4565;SDS011;2295;51.050;14.608;2022-08-19T12:40:26;19.00;;;11.60;;
4565;SDS011;2295;51.050;14.608;2022-08-19T12:42:54;10.23;;;9.23;;
4565;SDS011;2295;51.050;14.608;2022-08-19T12:45:22;14.03;;;9.57;;
4565;SDS011;2295;51.050;14.608;2022-08-19T12:47:51;10.23;;;9.20;;
4565;SDS011;2295;51.050;14.608;2022-08-19T12:50:20;10.30;;;9.30;;
4565;SDS011;2295;51.050;14.608;2022-08-19T12:52:50;9.87;;;8.87;;
4565;SDS011;2295;51.050;14.608;2022-08-19T12:55:18;10.90;;;9.90;;
4565;SDS011;2295;51.050;14.608;2022-08-19T12:57:47;12.10;;;10.47;;
4565;SDS011;2295;51.050;14.608;2022-08-19T13:00:17;12.90;;;10.83;;
4565;SDS011;2295;51.050;14.608;2022-08-19T13:02:49;10.50;;;9.40;;
4565;SDS011;2295;51.050;14.608;2022-08-19T13:05:19;10.03;;;9.10;;
4565;SDS011;2295;51.050;14.608;2022-08-19T13:07:49;10.57;;;9.20;;
4565;SDS011;2295;51.050;14.608;2022-08-19T13:10:22;11.43;;;10.30;;
4565;SDS011;2295;51.050;14.608;2022-08-19T13:12:54;12.10;;;9.83;;
4565;SDS011;2295;51.050;14.608;2022-08-19T13:15:23;10.70;;;9.70;;
4565;SDS011;2295;51.050;14.608;2022-08-19T13:17:52;11.60;;;10.50;;
4565;SDS011;2295;51.050;14.608;2022-08-19T13:20:22;10.60;;;9.10;;
4565;SDS011;2295;51.050;14.608;2022-08-19T13:22:53;16.63;;;9.53;;
4565;SDS011;2295;51.050;14.608;2022-08-19T13:25:23;9.30;;;7.93;;
4565;SDS011;2295;51.050;14.608;2022-08-19T13:27:52;8.90;;;8.03;;
4565;SDS011;2295;51.050;14.608;2022-08-19T13:30:21;9.93;;;8.20;;
4565;SDS011;2295;51.050;14.608;2022-08-19T13:33:07;8.90;;;7.83;;
4565;SDS011;2295;51.050;14.608;2022-08-19T13:35:43;8.90;;;8.10;;
4565;SDS011;2295;51.050;14.608;2022-08-19T13:38:16;8.90;;;8.13;;
4565;SDS011;2295;51.050;14.608;2022-08-19T13:40:47;9.00;;;8.10;;
4565;SDS011;2295;51.050;14.608;2022-08-19T13:43:17;13.20;;;8.83;;
4565;SDS011;2295;51.050;14.608;2022-08-19T13:45:50;10.47;;;9.30;;
4565;SDS011;2295;51.050;14.608;2022-08-19T13:48:24;10.47;;;9.40;;
4565;SDS011;2295;51.050;14.608;2022-08-19T13:50:53;11.23;;;10.10;;
4565;SDS011;2295;51.050;14.608;2022-08-19T13:53:23;11.20;;;9.53;;
4565;SDS011;2295;51.050;14.608;2022-08-19T13:55:52;11.30;;;9.77;;
4565;SDS011;2295;51.050;14.608;2022-08-19T13:58:20;11.20;;;10.00;;
4565;SDS011;2295;51.050;14.608;2022-08-19T14:00:49;10.43;;;9.53;;
4565;SDS011;2295;51.050;14.608;2022-08-19T14:03:17;12.57;;;9.60;;
4565;SDS011;2295;51.050;14.608;2022-08-19T14:05:46;11.00;;;9.90;;
4565;SDS011;2295;51.050;14.608;2022-08-19T14:08:14;11.37;;;10.27;;
4565;SDS011;2295;51.050;14.608;2022-08-19T14:10:44;13.00;;;10.20;;
4565;SDS011;2295;51.050;14.608;2022-08-19T14:13:13;13.10;;;10.40;;
4565;SDS011;2295;51.050;14.608;2022-08-19T14:15:43;10.20;;;9.07;;
4565;SDS011;2295;51.050;14.608;2022-08-19T14:18:12;10.90;;;8.97;;
4565;SDS011;2295;51.050;14.608;2022-08-19T14:20:40;11.80;;;9.80;;
4565;SDS011;2295;51.050;14.608;2022-08-19T14:23:09;14.10;;;10.30;;
4565;SDS011;2295;51.050;14.608;2022-08-19T14:25:38;13.83;;;9.37;;
4565;SDS011;2295;51.050;14.608;2022-08-19T14:28:08;11.87;;;10.47;;
4565;SDS011;2295;51.050;14.608;2022-08-19T14:30:36;18.70;;;11.70;;
4565;SDS011;2295;51.050;14.608;2022-08-19T14:33:05;11.60;;;10.50;;
4565;SDS011;2295;51.050;14.608;2022-08-19T14:35:34;12.80;;;11.57;;
4565;SDS011;2295;51.050;14.608;2022-08-19T14:38:03;11.33;;;10.33;;
4565;SDS011;2295;51.050;14.608;2022-08-19T14:40:32;13.37;;;10.87;;
4565;SDS011;2295;51.050;14.608;2022-08-19T14:43:02;17.80;;;13.00;;
4565;SDS011;2295;51.050;14.608;2022-08-19T14:45:34;12.10;;;11.00;;
4565;SDS011;2295;51.050;14.608;2022-08-19T14:48:06;11.93;;;10.70;;
4565;SDS011;2295;51.050;14.608;2022-08-19T14:50:45;12.57;;;11.20;;
4565;SDS011;2295;51.050;14.608;2022-08-19T14:53:15;19.23;;;11.70;;
4565;SDS011;2295;51.050;14.608;2022-08-19T14:55:44;13.40;;;12.00;;
4565;SDS011;2295;51.050;14.608;2022-08-19T14:58:13;12.40;;;11.10;;
4565;SDS011;2295;51.050;14.608;2022-08-19T15:00:57;13.30;;;10.50;;
4565;SDS011;2295;51.050;14.608;2022-08-19T15:03:26;12.50;;;11.20;;
4565;SDS011;2295;51.050;14.608;2022-08-19T15:05:55;13.13;;;11.33;;
4565;SDS011;2295;51.050;14.608;2022-08-19T15:08:24;15.03;;;12.20;;
4565;SDS011;2295;51.050;14.608;2022-08-19T15:10:53;15.67;;;12.80;;